Terminal Aerodrome Forecast
Issued by NWS

Home | Current Version | Previous Version | Text Only | Print | Product List | Glossary On
Versions: 1 2 3 4 5 6 7 8 9 10 11 12 13 14 15 16 17 18 19 20 21 22 23 24 25 26 27 28 29 30 31 32 33 34 35 36 37 38 39 40 41 42 43 44 45
000
FTUS45 KBOU 021736
TAFAPA
TAF
KAPA 021736Z 0218/0318 23009KT P6SM FEW070 SCT220
     FM022000 05008KT P6SM SCT050 BKN140
     FM022300 07010KT P6SM SCT070 BKN120
      TEMPO 0223/0303 VRB20G32KT -TSRA BKN060CB
     FM030300 14008KT P6SM SCT080 BKN140
     FM030600 20008KT P6SM SCT120 BKN200
     FM031400 VRB06KT P6SM FEW080 SCT120 BKN200=

USA.gov is the U.S. government's official web portal to all federal, state and local government web resources and services.